Time;durP1;ratioP1;P1;durP2;ratioP2;P2;SDS_P1;SDS_P2;PMS_P1;PMS_P2;Temp;Humidity;BMP_temperature;BMP_pressure;BME280_temperature;BME280_humidity;BME280_pressure;Samples;Min_cycle;Max_cycle;Signal;HPM_P1;HPM_P2
2022/04/10 00:01:44;;;;;;;14.60;3.63;;;;;;;;;;5036286;28;20063;-72
2022/04/10 00:04:10;;;;;;;14.45;2.47;;;;;;;;;;5035875;28;20044;-72
2022/04/10 00:06:36;;;;;;;12.32;3.67;;;;;;;;;;5036581;28;20686;-72
2022/04/10 00:09:02;;;;;;;17.77;3.28;;;;;;;;;;5019422;28;20056;-72
2022/04/10 00:11:29;;;;;;;15.00;3.40;;;;;;;;;;5036139;28;20044;-72
2022/04/10 00:13:56;;;;;;;15.57;3.45;;;;;;;;;;5035816;28;20091;-72
2022/04/10 00:16:22;;;;;;;11.25;2.63;;;;;;;;;;5035674;28;20057;-72
2022/04/10 00:18:48;;;;;;;14.38;2.40;;;;;;;;;;5035688;28;20040;-72
2022/04/10 00:21:14;;;;;;;22.25;4.45;;;;;;;;;;5035707;28;20033;-72
2022/04/10 00:23:40;;;;;;;15.63;2.90;;;;;;;;;;5003166;28;20072;-72
2022/04/10 00:26:06;;;;;;;19.02;2.83;;;;;;;;;;5035884;28;20048;-72
2022/04/10 00:28:32;;;;;;;10.40;2.47;;;;;;;;;;5019092;28;20051;-72
2022/04/10 00:30:59;;;;;;;7.70;2.17;;;;;;;;;;5019113;28;20040;-72
2022/04/10 00:33:25;;;;;;;15.45;3.08;;;;;;;;;;5017877;28;20036;-72
2022/04/10 00:35:51;;;;;;;11.88;2.55;;;;;;;;;;5035696;28;20123;-72
2022/04/10 00:38:17;;;;;;;10.10;2.47;;;;;;;;;;5018877;28;20072;-72
2022/04/10 00:40:43;;;;;;;11.45;3.08;;;;;;;;;;5035611;28;20049;-72
2022/04/10 00:43:09;;;;;;;14.98;2.53;;;;;;;;;;5035311;28;20063;-72
2022/04/10 00:45:35;;;;;;;12.00;3.55;;;;;;;;;;5018825;28;20037;-72
2022/04/10 00:48:01;;;;;;;11.65;2.30;;;;;;;;;;5035435;28;20052;-72
2022/04/10 00:50:27;;;;;;;10.98;2.35;;;;;;;;;;5018607;28;20140;-72
2022/04/10 00:52:54;;;;;;;14.50;2.95;;;;;;;;;;5018682;28;20049;-72
2022/04/10 00:55:21;;;;;;;11.90;2.78;;;;;;;;;;5018745;28;20049;-72
2022/04/10 00:57:48;;;;;;;11.65;2.42;;;;;;;;;;5018605;28;20115;-72
2022/04/10 01:00:15;;;;;;;14.63;2.78;;;;;;;;;;5034812;28;20053;-72
2022/04/10 01:02:41;;;;;;;11.95;2.75;;;;;;;;;;5034885;28;20045;-72
2022/04/10 01:05:08;;;;;;;16.25;3.03;;;;;;;;;;5018510;28;20044;-72
2022/04/10 01:07:34;;;;;;;12.55;2.53;;;;;;;;;;5018840;28;20087;-72
2022/04/10 01:10:00;;;;;;;16.95;3.20;;;;;;;;;;5035060;28;20052;-72
2022/04/10 01:12:26;;;;;;;9.63;2.42;;;;;;;;;;5034696;28;20071;-72
2022/04/10 01:14:52;;;;;;;15.23;2.83;;;;;;;;;;5018586;28;20404;-72
2022/04/10 01:17:19;;;;;;;13.02;2.65;;;;;;;;;;5018456;28;20443;-72
2022/04/10 01:19:45;;;;;;;10.30;2.42;;;;;;;;;;5034559;28;20045;-72
2022/04/10 01:22:18;;;;;;;11.13;2.35;;;;;;;;;;5034807;28;20056;-72
2022/04/10 01:24:44;;;;;;;12.00;2.97;;;;;;;;;;5034818;28;20037;-72
2022/04/10 01:27:10;;;;;;;10.70;2.50;;;;;;;;;;5034707;28;20079;-72
2022/04/10 01:29:37;;;;;;;9.32;2.33;;;;;;;;;;5018404;28;20095;-72
2022/04/10 01:32:03;;;;;;;19.73;3.65;;;;;;;;;;5051010;28;20051;-72
2022/04/10 01:34:29;;;;;;;15.98;3.45;;;;;;;;;;5017968;28;20056;-72
2022/04/10 01:36:56;;;;;;;16.13;2.80;;;;;;;;;;5034722;28;20048;-72
2022/04/10 01:39:22;;;;;;;13.15;3.88;;;;;;;;;;5034159;28;20126;-72
2022/04/10 01:41:50;;;;;;;11.30;2.65;;;;;;;;;;5034295;28;20048;-72
2022/04/10 01:44:16;;;;;;;11.32;2.60;;;;;;;;;;5034081;28;20508;-72
2022/04/10 01:46:42;;;;;;;15.10;2.88;;;;;;;;;;5034181;28;20045;-72
2022/04/10 01:49:09;;;;;;;12.07;3.90;;;;;;;;;;5017962;28;20510;-72
2022/04/10 01:51:35;;;;;;;13.70;2.58;;;;;;;;;;5033965;28;20060;-72
2022/04/10 01:54:01;;;;;;;14.25;2.75;;;;;;;;;;5017663;28;20045;-72
2022/04/10 01:56:27;;;;;;;15.27;3.33;;;;;;;;;;5034362;28;20049;-72
2022/04/10 01:58:53;;;;;;;15.98;3.10;;;;;;;;;;5017813;28;20134;-72
2022/04/10 02:01:21;;;;;;;10.07;2.63;;;;;;;;;;5034249;28;20048;-72
2022/04/10 02:03:47;;;;;;;17.67;3.22;;;;;;;;;;5034243;28;20083;-72
2022/04/10 02:06:14;;;;;;;13.70;2.85;;;;;;;;;;5033930;28;20041;-72
2022/04/10 02:08:42;;;;;;;8.63;2.10;;;;;;;;;;5033837;28;20055;-72
2022/04/10 02:11:15;;;;;;;18.73;2.92;;;;;;;;;;5050468;28;20098;-72
2022/04/10 02:13:42;;;;;;;12.05;2.85;;;;;;;;;;5033823;28;20036;-72
2022/04/10 02:16:10;;;;;;;12.35;3.75;;;;;;;;;;5034135;28;20374;-72
2022/04/10 02:18:37;;;;;;;11.85;2.63;;;;;;;;;;5017236;28;20136;-72
2022/04/10 02:21:03;;;;;;;12.50;2.63;;;;;;;;;;5033749;28;20077;-72
2022/04/10 02:23:29;;;;;;;11.50;2.63;;;;;;;;;;5033680;28;20446;-72
2022/04/10 02:25:55;;;;;;;13.52;2.97;;;;;;;;;;5017419;28;20079;-72
2022/04/10 02:28:22;;;;;;;12.63;2.50;;;;;;;;;;5033684;28;20124;-72
2022/04/10 02:30:48;;;;;;;13.80;4.13;;;;;;;;;;5017304;28;20041;-72
2022/04/10 02:33:14;;;;;;;15.95;3.78;;;;;;;;;;5033692;28;20052;-72
2022/04/10 02:35:46;;;;;;;16.85;3.53;;;;;;;;;;5033692;28;20140;-72
2022/04/10 02:38:12;;;;;;;10.77;2.80;;;;;;;;;;5017082;28;20099;-72
2022/04/10 02:40:38;;;;;;;17.50;2.85;;;;;;;;;;5033615;28;20090;-72
2022/04/10 02:43:04;;;;;;;11.07;2.45;;;;;;;;;;5033939;28;20076;-72
2022/04/10 02:45:30;;;;;;;11.57;2.88;;;;;;;;;;5033505;28;20041;-72
2022/04/10 02:47:57;;;;;;;16.52;3.55;;;;;;;;;;5001139;28;20049;-72
2022/04/10 02:50:24;;;;;;;8.75;3.17;;;;;;;;;;5033575;28;20092;-72
2022/04/10 02:52:51;;;;;;;15.80;2.42;;;;;;;;;;5050292;28;20049;-73
2022/04/10 02:55:18;;;;;;;12.82;3.55;;;;;;;;;;5033390;28;20049;-72
2022/04/10 02:57:44;;;;;;;12.75;3.58;;;;;;;;;;5019811;28;20052;-72
2022/04/10 03:00:10;;;;;;;7.97;2.33;;;;;;;;;;5037156;28;20148;-72
2022/04/10 03:02:39;;;;;;;10.95;2.70;;;;;;;;;;5054101;28;20037;-72
2022/04/10 03:05:05;;;;;;;10.48;2.83;;;;;;;;;;5020932;28;20045;-73
2022/04/10 03:07:31;;;;;;;12.10;2.70;;;;;;;;;;5037058;28;20037;-72
2022/04/10 03:09:57;;;;;;;17.70;3.00;;;;;;;;;;5037032;28;20037;-72
2022/04/10 03:12:23;;;;;;;11.80;2.95;;;;;;;;;;5036993;28;20099;-72
2022/04/10 03:14:49;;;;;;;9.85;2.75;;;;;;;;;;5020469;28;20041;-72
2022/04/10 03:17:15;;;;;;;10.45;3.47;;;;;;;;;;5053725;28;20040;-72
2022/04/10 03:19:41;;;;;;;13.05;2.72;;;;;;;;;;5020455;28;20091;-72
2022/04/10 03:22:07;;;;;;;10.32;2.35;;;;;;;;;;5036774;28;20037;-72
2022/04/10 03:24:34;;;;;;;13.88;2.58;;;;;;;;;;5036517;28;20037;-72
2022/04/10 03:27:00;;;;;;;11.85;2.80;;;;;;;;;;5036710;28;20045;-72
2022/04/10 03:29:26;;;;;;;10.50;2.33;;;;;;;;;;5036700;28;20158;-72
2022/04/10 03:31:52;;;;;;;9.05;3.25;;;;;;;;;;5020231;28;20061;-72
2022/04/10 03:34:18;;;;;;;16.92;2.80;;;;;;;;;;5053255;28;20079;-73
2022/04/10 03:36:44;;;;;;;9.45;2.15;;;;;;;;;;5020135;28;20052;-72
2022/04/10 03:39:10;;;;;;;12.75;2.58;;;;;;;;;;5053051;28;20071;-72
2022/04/10 03:41:36;;;;;;;12.63;2.25;;;;;;;;;;5037055;28;20041;-72
2022/04/10 03:44:02;;;;;;;12.35;2.75;;;;;;;;;;5036464;28;20095;-72
2022/04/10 03:46:28;;;;;;;12.35;2.33;;;;;;;;;;5036373;28;20041;-72
2022/04/10 03:48:54;;;;;;;7.90;2.00;;;;;;;;;;5019910;28;20072;-72
2022/04/10 03:51:20;;;;;;;10.57;2.30;;;;;;;;;;5003380;28;20056;-72
2022/04/10 03:53:46;;;;;;;10.27;1.90;;;;;;;;;;5019828;28;20135;-72
2022/04/10 03:56:13;;;;;;;12.30;2.00;;;;;;;;;;5019994;28;20526;-72
2022/04/10 03:58:39;;;;;;;10.27;2.20;;;;;;;;;;5036349;28;20041;-72
2022/04/10 04:01:05;;;;;;;10.25;2.85;;;;;;;;;;5036172;28;20041;-72
2022/04/10 04:03:31;;;;;;;8.38;1.80;;;;;;;;;;5036038;28;20047;-72
2022/04/10 04:05:57;;;;;;;15.05;3.17;;;;;;;;;;5019599;28;20037;-72
2022/04/10 04:08:24;;;;;;;11.20;2.10;;;;;;;;;;5035921;28;20514;-72
2022/04/10 04:10:50;;;;;;;11.80;1.92;;;;;;;;;;5035917;28;20041;-72
2022/04/10 04:13:16;;;;;;;6.03;1.52;;;;;;;;;;5019701;28;20484;-72
2022/04/10 04:15:42;;;;;;;16.83;2.28;;;;;;;;;;5052675;28;20528;-72
2022/04/10 04:18:08;;;;;;;7.65;1.50;;;;;;;;;;5036040;28;20048;-72
2022/04/10 04:20:34;;;;;;;6.65;1.50;;;;;;;;;;5052129;28;20555;-72
2022/04/10 04:23:00;;;;;;;5.72;1.75;;;;;;;;;;5002921;28;20040;-72
2022/04/10 04:25:26;;;;;;;5.85;1.52;;;;;;;;;;5052587;28;20570;-72
2022/04/10 04:27:52;;;;;;;5.90;1.08;;;;;;;;;;5052457;28;20064;-72
2022/04/10 04:30:19;;;;;;;5.85;1.30;;;;;;;;;;5052455;28;20416;-72
2022/04/10 04:32:45;;;;;;;5.65;1.25;;;;;;;;;;5052134;28;20041;-72
2022/04/10 04:35:12;;;;;;;3.35;1.25;;;;;;;;;;5052021;28;20045;-71
2022/04/10 04:37:40;;;;;;;7.65;2.30;;;;;;;;;;5018994;28;20128;-72
2022/04/10 04:40:07;;;;;;;5.90;2.60;;;;;;;;;;5051980;28;20049;-72
2022/04/10 04:42:33;;;;;;;5.80;1.40;;;;;;;;;;5051852;28;20123;-72
2022/04/10 04:44:59;;;;;;;9.32;2.03;;;;;;;;;;5018819;28;20044;-72
2022/04/10 04:47:25;;;;;;;4.38;1.00;;;;;;;;;;5052114;28;20041;-72
2022/04/10 04:49:51;;;;;;;4.45;1.30;;;;;;;;;;5051602;28;20128;-72
2022/04/10 04:52:18;;;;;;;4.82;1.05;;;;;;;;;;5051700;28;20074;-73
2022/04/10 04:54:45;;;;;;;4.85;1.67;;;;;;;;;;5018617;28;20112;-73
2022/04/10 04:57:11;;;;;;;7.85;1.67;;;;;;;;;;5051622;28;20123;-73
2022/04/10 04:59:37;;;;;;;6.47;1.75;;;;;;;;;;5018307;28;20049;-73
2022/04/10 05:02:03;;;;;;;7.32;1.67;;;;;;;;;;5051477;28;20044;-73
2022/04/10 05:04:29;;;;;;;5.50;1.58;;;;;;;;;;5018838;28;20496;-73
2022/04/10 05:06:55;;;;;;;6.30;1.20;;;;;;;;;;5051384;28;20119;-73
2022/04/10 05:09:21;;;;;;;4.57;1.30;;;;;;;;;;5018429;28;20044;-73
2022/04/10 05:11:47;;;;;;;4.53;1.65;;;;;;;;;;5051369;28;20130;-73
2022/04/10 05:14:13;;;;;;;3.67;1.30;;;;;;;;;;5051310;28;20045;-73
2022/04/10 05:16:39;;;;;;;5.57;1.35;;;;;;;;;;5018500;28;20381;-73
2022/04/10 05:19:05;;;;;;;6.65;1.13;;;;;;;;;;5050498;28;20037;-73
2022/04/10 05:21:31;;;;;;;3.88;1.00;;;;;;;;;;5051438;28;20492;-73
2022/04/10 05:23:57;;;;;;;8.93;1.50;;;;;;;;;;5051146;28;20403;-73
2022/04/10 05:26:26;;;;;;;3.25;1.27;;;;;;;;;;5051137;28;20048;-73
2022/04/10 05:28:52;;;;;;;5.68;1.27;;;;;;;;;;5051356;28;20488;-73
2022/04/10 05:31:18;;;;;;;7.00;1.42;;;;;;;;;;5051258;28;20511;-73
2022/04/10 05:33:44;;;;;;;7.72;1.45;;;;;;;;;;5018251;28;20044;-73
2022/04/10 05:36:10;;;;;;;5.68;1.35;;;;;;;;;;5050931;28;20075;-73
2022/04/10 05:38:36;;;;;;;4.05;1.30;;;;;;;;;;5051068;28;20507;-73
2022/04/10 05:41:02;;;;;;;10.20;1.60;;;;;;;;;;5050855;28;20128;-73
2022/04/10 05:43:30;;;;;;;4.95;1.52;;;;;;;;;;5034123;28;20055;-73
2022/04/10 05:45:56;;;;;;;3.75;1.45;;;;;;;;;;5051063;28;20484;-73
2022/04/10 05:48:22;;;;;;;9.30;2.10;;;;;;;;;;5018147;28;20523;-73
2022/04/10 05:50:48;;;;;;;6.03;1.58;;;;;;;;;;5001041;28;20130;-73
2022/04/10 05:53:14;;;;;;;6.97;2.28;;;;;;;;;;5017913;28;20041;-73
2022/04/10 05:55:40;;;;;;;15.07;2.38;;;;;;;;;;5017982;28;20400;-73
2022/04/10 05:58:06;;;;;;;6.70;3.08;;;;;;;;;;5034032;28;20083;-73
2022/04/10 06:00:33;;;;;;;7.15;2.40;;;;;;;;;;5050515;28;20128;-73
2022/04/10 06:03:05;;;;;;;7.05;1.95;;;;;;;;;;5050460;28;20066;-73
2022/04/10 06:05:31;;;;;;;5.38;2.00;;;;;;;;;;5017649;28;20041;-73
2022/04/10 06:07:57;;;;;;;8.00;2.38;;;;;;;;;;5017583;28;20098;-73
2022/04/10 06:10:23;;;;;;;9.05;1.45;;;;;;;;;;5017488;28;20059;-73
2022/04/10 06:12:49;;;;;;;7.85;1.60;;;;;;;;;;5050351;28;20133;-73
2022/04/10 06:15:19;;;;;;;6.80;1.85;;;;;;;;;;5017157;28;20048;-73
2022/04/10 06:17:45;;;;;;;6.82;2.00;;;;;;;;;;5017411;28;20049;-73
2022/04/10 06:20:12;;;;;;;5.68;1.50;;;;;;;;;;5050187;28;20051;-73
2022/04/10 06:22:38;;;;;;;5.88;1.48;;;;;;;;;;5050304;28;20040;-73
2022/04/10 06:25:04;;;;;;;5.70;1.63;;;;;;;;;;5050250;28;20058;-73
2022/04/10 06:27:30;;;;;;;10.57;2.20;;;;;;;;;;5050463;28;20515;-71
2022/04/10 06:29:56;;;;;;;7.90;1.42;;;;;;;;;;5033674;28;20048;-71
2022/04/10 06:32:22;;;;;;;6.35;1.65;;;;;;;;;;5054580;28;20110;-72
2022/04/10 06:34:48;;;;;;;6.93;1.58;;;;;;;;;;5054259;28;20087;-72
2022/04/10 06:37:14;;;;;;;8.63;1.58;;;;;;;;;;5020882;28;20040;-73
2022/04/10 06:39:41;;;;;;;8.55;1.92;;;;;;;;;;5054127;28;20048;-73
2022/04/10 06:42:08;;;;;;;5.65;1.20;;;;;;;;;;5021117;28;20068;-73
2022/04/10 06:44:34;;;;;;;7.43;1.20;;;;;;;;;;5054344;28;20037;-73
2022/04/10 06:47:00;;;;;;;3.67;1.20;;;;;;;;;;5054344;28;20404;-73
2022/04/10 06:49:26;;;;;;;10.27;2.70;;;;;;;;;;5054090;28;20487;-73
2022/04/10 06:51:52;;;;;;;5.68;1.58;;;;;;;;;;5037189;28;20091;-73
2022/04/10 06:54:18;;;;;;;4.22;1.50;;;;;;;;;;5053955;28;20047;-73
2022/04/10 06:56:44;;;;;;;6.80;1.40;;;;;;;;;;5054094;28;20045;-73
2022/04/10 06:59:11;;;;;;;14.35;2.25;;;;;;;;;;5020909;28;20069;-73
2022/04/10 07:01:37;;;;;;;6.85;1.67;;;;;;;;;;5037206;28;20087;-73
2022/04/10 07:04:04;;;;;;;5.13;1.25;;;;;;;;;;5020687;28;20040;-73
2022/04/10 07:06:30;;;;;;;5.75;1.30;;;;;;;;;;5020648;28;20123;-73
2022/04/10 07:08:57;;;;;;;13.02;2.17;;;;;;;;;;5020927;28;20498;-72
2022/04/10 07:11:23;;;;;;;10.50;2.22;;;;;;;;;;5037014;28;20123;-72
2022/04/10 07:13:49;;;;;;;5.18;1.40;;;;;;;;;;5037316;28;20041;-72
2022/04/10 07:16:16;;;;;;;4.82;1.75;;;;;;;;;;5020253;28;20048;-72
2022/04/10 07:18:42;;;;;;;4.88;1.27;;;;;;;;;;5020066;28;20052;-72
2022/04/10 07:21:08;;;;;;;3.22;1.20;;;;;;;;;;5053479;28;20049;-71
2022/04/10 07:23:46;;;;;;;4.25;1.42;;;;;;;;;;5053352;28;20037;-72
2022/04/10 07:26:16;;;;;;;4.45;1.50;;;;;;;;;;5053610;28;20045;-72
2022/04/10 07:28:42;;;;;;;3.42;1.27;;;;;;;;;;5053463;28;20569;-72
2022/04/10 07:31:08;;;;;;;4.65;1.30;;;;;;;;;;5021507;28;20066;-72
2022/04/10 07:33:35;;;;;;;3.85;1.35;;;;;;;;;;5054084;28;20045;-71
2022/04/10 07:36:01;;;;;;;10.13;1.30;;;;;;;;;;5053457;28;20128;-73
2022/04/10 07:38:27;;;;;;;5.53;1.35;;;;;;;;;;5036523;28;20048;-73
2022/04/10 07:40:53;;;;;;;5.35;1.60;;;;;;;;;;5053382;28;20048;-73
2022/04/10 07:43:20;;;;;;;8.40;1.63;;;;;;;;;;5019287;28;20041;-73
2022/04/10 07:48:30;;;;;;;4.80;1.42;;;;;;;;;;5053263;28;20037;-74
2022/04/10 07:50:57;;;;;;;13.40;1.80;;;;;;;;;;5052733;28;20068;-72
2022/04/10 07:53:23;;;;;;;8.15;1.58;;;;;;;;;;5053001;28;20049;-73
2022/04/10 07:55:49;;;;;;;7.65;1.67;;;;;;;;;;5019712;28;20036;-73
2022/04/10 07:58:16;;;;;;;3.90;1.58;;;;;;;;;;5052708;28;20041;-72
2022/04/10 08:00:42;;;;;;;7.95;1.55;;;;;;;;;;5052701;28;20098;-71
2022/04/10 08:03:08;;;;;;;7.78;2.00;;;;;;;;;;5052691;28;20087;-71
2022/04/10 08:05:34;;;;;;;5.60;1.60;;;;;;;;;;5052504;28;20037;-74
2022/04/10 08:08:00;;;;;;;11.38;2.10;;;;;;;;;;5019511;28;20040;-72
2022/04/10 08:10:28;;;;;;;8.93;2.17;;;;;;;;;;5036182;28;20492;-72
2022/04/10 08:12:55;;;;;;;4.22;1.40;;;;;;;;;;5003624;28;20041;-72
2022/04/10 08:15:21;;;;;;;6.15;1.45;;;;;;;;;;5052629;28;20048;-72
2022/04/10 08:17:47;;;;;;;3.80;1.38;;;;;;;;;;5052470;28;20041;-72
2022/04/10 08:20:13;;;;;;;10.80;1.70;;;;;;;;;;5018981;28;20044;-73
2022/04/10 08:22:39;;;;;;;3.97;1.70;;;;;;;;;;5019608;28;20401;-72
2022/04/10 08:25:06;;;;;;;6.32;1.90;;;;;;;;;;5019099;28;20037;-73
2022/04/10 08:27:33;;;;;;;7.68;1.80;;;;;;;;;;5018987;28;20041;-72
2022/04/10 08:30:00;;;;;;;9.30;1.98;;;;;;;;;;5019161;28;20036;-74
2022/04/10 08:32:26;;;;;;;8.65;2.17;;;;;;;;;;5052067;28;20124;-74
2022/04/10 08:34:55;;;;;;;6.13;1.63;;;;;;;;;;5003703;28;20098;-73
2022/04/10 08:37:21;;;;;;;8.20;1.90;;;;;;;;;;5051958;28;20056;-73
2022/04/10 08:39:47;;;;;;;11.20;1.48;;;;;;;;;;5052006;28;20041;-73
2022/04/10 08:42:13;;;;;;;6.90;1.58;;;;;;;;;;5035527;28;20445;-72
2022/04/10 08:44:39;;;;;;;7.32;1.60;;;;;;;;;;5002410;28;20041;-74
2022/04/10 08:47:06;;;;;;;5.78;1.52;;;;;;;;;;5018609;28;20086;-73
2022/04/10 08:49:32;;;;;;;10.70;1.70;;;;;;;;;;5051671;28;20045;-73
2022/04/10 08:51:59;;;;;;;7.57;2.08;;;;;;;;;;5018415;28;20118;-73
2022/04/10 08:54:26;;;;;;;6.53;1.52;;;;;;;;;;5051117;28;20044;-73
2022/04/10 08:56:52;;;;;;;8.57;1.80;;;;;;;;;;5051914;28;20052;-73
2022/04/10 08:59:19;;;;;;;8.90;1.85;;;;;;;;;;5051546;28;20126;-78
2022/04/10 09:01:45;;;;;;;11.05;2.50;;;;;;;;;;5018656;28;20041;-77
2022/04/10 09:04:11;;;;;;;7.65;2.20;;;;;;;;;;5034853;28;20041;-73
2022/04/10 09:06:41;;;;;;;7.50;1.88;;;;;;;;;;5051513;28;20051;-80
2022/04/10 09:09:16;;;;;;;8.50;1.65;;;;;;;;;;5052779;28;20051;-73
2022/04/10 09:11:43;;;;;;;9.10;1.70;;;;;;;;;;5051623;28;20155;-73
2022/04/10 09:14:09;;;;;;;7.82;1.60;;;;;;;;;;5051329;28;20128;-74
2022/04/10 09:16:42;;;;;;;4.72;1.58;;;;;;;;;;5142774;27;20809;-72
2022/04/10 09:19:08;;;;;;;4.55;1.30;;;;;;;;;;5108527;28;20372;-72
2022/04/10 09:21:36;;;;;;;11.63;2.22;;;;;;;;;;5108278;28;20047;-72
2022/04/10 09:24:04;;;;;;;5.63;1.40;;;;;;;;;;5108351;28;20072;-71
2022/04/10 09:26:45;;;;;;;7.80;1.50;;;;;;;;;;5108292;28;20047;-72
2022/04/10 09:29:11;;;;;;;;;;;;;;;;;;5108852;28;20142;-71
2022/04/10 09:31:37;;;;;;;5.55;1.77;;;;;;;;;;5108125;28;19963;-72
2022/04/10 09:34:05;;;;;;;8.88;1.73;;;;;;;;;;5108300;28;20066;-72
2022/04/10 09:36:34;;;;;;;7.45;1.55;;;;;;;;;;5107971;28;20036;-71
2022/04/10 09:39:00;;;;;;;10.07;1.92;;;;;;;;;;5107987;28;20074;-71
2022/04/10 09:41:26;;;;;;;6.85;2.10;;;;;;;;;;5107917;28;20039;-73
2022/04/10 09:43:53;;;;;;;11.57;2.17;;;;;;;;;;5091326;28;20119;-72
2022/04/10 09:46:19;;;;;;;7.22;1.63;;;;;;;;;;5108125;28;20048;-70
2022/04/10 09:48:45;;;;;;;8.85;2.17;;;;;;;;;;5108065;28;20533;-71
2022/04/10 09:51:11;;;;;;;7.82;1.38;;;;;;;;;;5108066;28;20434;-72
2022/04/10 09:53:38;;;;;;;5.63;1.45;;;;;;;;;;5107822;28;20040;-70
2022/04/10 09:56:05;;;;;;;3.53;1.20;;;;;;;;;;5107671;28;20514;-72
2022/04/10 09:58:32;;;;;;;3.50;1.73;;;;;;;;;;5091248;28;20086;-72
2022/04/10 10:00:59;;;;;;;3.33;0.80;;;;;;;;;;5107603;28;20032;-72
2022/04/10 10:03:29;;;;;;;6.22;1.38;;;;;;;;;;5107587;28;20040;-72
2022/04/10 10:05:56;;;;;;;6.65;1.00;;;;;;;;;;5090569;28;20040;-72
2022/04/10 10:08:23;;;;;;;7.00;1.30;;;;;;;;;;5107327;28;20047;-72
2022/04/10 10:10:49;;;;;;;2.58;0.80;;;;;;;;;;5107319;28;20042;-72
2022/04/10 10:13:16;;;;;;;6.10;1.00;;;;;;;;;;5090332;28;20127;-72
2022/04/10 10:15:43;;;;;;;5.45;1.17;;;;;;;;;;5090152;28;20055;-72
2022/04/10 10:18:13;;;;;;;6.15;1.27;;;;;;;;;;5107258;28;20088;-72
2022/04/10 10:20:42;;;;;;;7.80;1.25;;;;;;;;;;5090493;28;20479;-72
2022/04/10 10:23:09;;;;;;;7.38;1.35;;;;;;;;;;5107382;28;20043;-72
2022/04/10 10:25:54;;;;;;;8.13;1.20;;;;;;;;;;5107134;28;20069;-72
2022/04/10 10:28:39;;;;;;;7.10;1.30;;;;;;;;;;5092937;28;20078;-72
2022/04/10 10:31:13;;;;;;;9.00;2.03;;;;;;;;;;5093469;28;20101;-72
2022/04/10 10:33:40;;;;;;;6.97;1.58;;;;;;;;;;5093778;28;20558;-72
2022/04/10 10:36:09;;;;;;;4.47;1.52;;;;;;;;;;5093305;28;20055;-72
2022/04/10 10:38:36;;;;;;;9.27;1.65;;;;;;;;;;5093352;28;20485;-73
2022/04/10 10:41:29;;;;;;;6.50;1.88;;;;;;;;;;5093507;28;20036;-73
2022/04/10 10:43:55;;;;;;;7.45;1.48;;;;;;;;;;5091486;28;20051;-72
2022/04/10 10:46:34;;;;;;;9.48;1.80;;;;;;;;;;5093169;28;20082;-73
2022/04/10 10:49:27;;;;;;;5.03;1.42;;;;;;;;;;5078186;28;20044;-74
2022/04/10 10:51:54;;;;;;;6.43;2.00;;;;;;;;;;5061423;28;20550;-73
2022/04/10 10:54:31;;;;;;;6.32;1.70;;;;;;;;;;5093455;28;20126;-72
2022/04/10 10:56:57;;;;;;;7.07;1.65;;;;;;;;;;5093020;28;20043;-72
2022/04/10 10:59:39;;;;;;;7.65;1.33;;;;;;;;;;5093255;28;20079;-72
2022/04/10 11:02:08;;;;;;;5.95;1.35;;;10.50;99.90;;;;;;5093055;28;20047;-72
2022/04/10 11:04:42;;;;;;;9.85;3.13;;;10.50;99.90;;;;;;5075973;28;20075;-69
2022/04/10 11:07:22;;;;;;;5.30;1.42;;;10.40;99.90;;;;;;5092740;28;20040;-72
2022/04/10 11:09:58;;;;;;;8.20;1.50;;;9.90;99.90;;;;;;5092975;28;20040;-72
2022/04/10 11:12:50;;;;;;;7.25;1.77;;;9.40;99.90;;;;;;5092616;28;20048;-70
2022/04/10 11:15:18;;;;;;;10.20;2.30;;;;;;;;;;5092342;28;20078;-70
2022/04/10 11:17:45;;;;;;;6.75;1.40;;;;;;;;;;5075803;28;20082;-71
2022/04/10 11:20:12;;;;;;;5.55;1.23;;;;;;;;;;5092520;28;20042;-71
2022/04/10 11:22:53;;;;;;;6.85;1.42;;;;;;;;;;5092360;28;20039;-72
2022/04/10 11:25:19;;;;;;;;;;;;;;;;;;5076116;28;20123;-72
2022/04/10 11:27:45;;;;;;;12.30;1.95;;;;;;;;;;5092619;28;20043;-72
2022/04/10 11:30:13;;;;;;;5.63;1.55;;;;;;;;;;5092303;28;20055;-73
2022/04/10 11:32:43;;;;;;;4.38;1.17;;;;;;;;;;5092545;28;20050;-72
2022/04/10 11:35:16;;;;;;;8.95;1.58;;;;;;;;;;5092185;28;20086;-72
2022/04/10 11:37:44;;;;;;;10.52;1.95;;;;;;;;;;5075263;28;20043;-71
2022/04/10 11:40:11;;;;;;;8.55;1.92;;;;;;;;;;5074587;28;20036;-72
2022/04/10 11:42:37;;;;;;;5.80;1.50;;;;;;;;;;5092331;28;20433;-72
2022/04/10 11:45:03;;;;;;;7.80;1.70;;;;;;;;;;5075055;28;20044;-72
2022/04/10 11:47:29;;;;;;;4.93;1.30;;;;;;;;;;5091952;28;20059;-72
2022/04/10 11:49:57;;;;;;;7.28;1.45;;;;;;;;;;5075420;28;20040;-72
2022/04/10 11:52:23;;;;;;;6.80;1.50;;;;;;;;;;5092360;28;20040;-70
2022/04/10 11:54:52;;;;;;;6.53;1.40;;;;;;;;;;5091814;28;20047;-72
2022/04/10 11:57:19;;;;;;;5.25;1.40;;;;;;;;;;5091905;28;20116;-72
2022/04/10 11:59:45;;;;;;;6.85;1.20;;;10.90;99.90;;;;;;5091785;28;20052;-72
2022/04/10 12:02:12;;;;;;;7.88;1.27;;;10.90;99.90;;;;;;5075157;28;20602;-72
2022/04/10 12:04:38;;;;;;;7.82;1.55;;;11.10;99.90;;;;;;5092265;28;20490;-70
2022/04/10 12:07:17;;;;;;;3.83;1.13;;;11.20;99.90;;;;;;5091807;28;20051;-71
2022/04/10 12:09:44;;;;;;;8.50;1.85;;;11.20;99.90;;;;;;5091682;28;20044;-71
2022/04/10 12:12:10;;;;;;;5.07;1.58;;;11.40;99.90;;;;;;5091590;28;20040;-69
2022/04/10 12:14:36;;;;;;;3.72;1.42;;;11.50;99.90;;;;;;5091520;28;20052;-69
2022/04/10 12:17:02;;;;;;;9.73;2.20;;;11.50;99.90;;;;;;5091412;28;20051;-69
2022/04/10 12:19:34;;;;;;;5.68;1.50;;;11.60;99.90;;;;;;5074930;28;20105;-69
2022/04/10 12:22:04;;;;;;;7.35;1.70;;;11.80;99.90;;;;;;5075648;28;20429;-69
2022/04/10 12:24:30;;;;;;;5.68;1.98;;;12.00;99.90;;;;;;5074771;28;20040;-69
2022/04/10 12:26:59;;;;;;;4.82;1.10;;;12.10;99.90;;;;;;5091495;28;20048;-70
2022/04/10 12:29:28;;;;;;;5.95;1.15;;;12.00;99.90;;;;;;5074321;28;20074;-69
2022/04/10 12:31:55;;;;;;;6.57;1.20;;;11.90;99.90;;;;;;5091369;28;20296;-68
2022/04/10 12:34:22;;;;;;;4.25;1.10;;;11.80;99.90;;;;;;5090881;28;20040;-69
2022/04/10 12:36:52;;;;;;;5.85;1.10;;;11.80;99.90;;;;;;5074222;28;20085;-70
2022/04/10 12:39:28;;;;;;;4.85;1.30;;;12.20;99.90;;;;;;5090976;28;20048;-69
2022/04/10 12:42:01;;;;;;;5.72;1.40;;;12.40;99.90;;;;;;5074110;28;20101;-69
2022/04/10 12:44:28;;;;;;;5.28;1.40;;;12.50;99.90;;;;;;5091273;28;20032;-68
2022/04/10 12:46:53;;;;;;;3.65;1.10;;;12.10;99.90;;;;;;5091064;28;20036;-69
2022/04/10 12:49:19;;;;;;;2.92;1.20;;;11.70;99.90;;;;;;5090699;28;20062;-69
2022/04/10 12:52:03;;;;;;;5.32;1.45;;;11.50;99.90;;;;;;5074247;28;20085;-69
2022/04/10 12:54:42;;;;;;;5.35;1.35;;;11.20;99.90;;;;;;5090694;28;20039;-68
2022/04/10 12:57:12;;;;;;;4.70;1.23;;;11.00;99.90;;;;;;5090828;28;20153;-70
2022/04/10 12:59:49;;;;;;;6.63;1.40;;;10.90;99.90;;;;;;5074193;28;20036;-71
2022/04/10 13:02:26;;;;;;;7.63;1.42;;;10.70;99.90;;;;;;5057570;28;20275;-70
2022/04/10 13:05:04;;;;;;;7.85;1.30;;;10.80;99.90;;;;;;5090685;28;20048;-69
2022/04/10 13:07:31;;;;;;;5.55;1.10;;;11.20;99.90;;;;;;5090614;28;20123;-68
2022/04/10 13:10:06;;;;;;;3.17;1.02;;;11.40;99.90;;;;;;5090540;28;20161;-69
2022/04/10 13:12:34;;;;;;;6.43;1.70;;;11.60;99.90;;;;;;5090626;28;20441;-70
2022/04/10 13:15:00;;;;;;;3.05;0.90;;;11.50;99.90;;;;;;5090386;28;20043;-70
2022/04/10 13:17:37;;;;;;;5.93;1.00;;;11.60;99.90;;;;;;5090598;28;20106;-70
2022/04/10 13:20:05;;;;;;;3.42;0.85;;;11.70;99.70;;;;;;5090768;28;20496;-70
2022/04/10 13:22:35;;;;;;;3.10;0.93;;;11.80;99.90;;;;;;5090492;28;20081;-69
2022/04/10 13:25:02;;;;;;;2.97;1.23;;;11.80;99.90;;;;;;5090508;28;20075;-69
2022/04/10 13:27:28;;;;;;;4.35;1.20;;;11.50;99.90;;;;;;5073697;28;20040;-70
2022/04/10 13:29:53;;;;;;;5.90;1.83;;;11.80;99.90;;;;;;5090352;28;20036;-69
2022/04/10 13:32:19;;;;;;;3.67;1.00;;;12.10;99.90;;;;;;5090360;28;20376;-68
2022/04/10 13:34:45;;;;;;;4.22;1.17;;;12.40;99.90;;;;;;5091492;28;20040;-69
2022/04/10 13:37:12;;;;;;;5.82;1.60;;;12.50;99.70;;;;;;5073547;28;20066;-68
2022/04/10 13:39:37;;;;;;;5.65;1.30;;;12.60;99.70;;;;;;5090371;28;20044;-69
2022/04/10 13:42:04;;;;;;;6.35;1.40;;;12.70;99.80;;;;;;5090599;28;20044;-70
2022/04/10 13:44:30;;;;;;;3.80;1.10;;;12.70;99.50;;;;;;5090548;28;20040;-68
2022/04/10 13:46:57;;;;;;;6.97;1.48;;;12.40;98.50;;;;;;5090480;28;20043;-68
2022/04/10 13:49:22;;;;;;;7.15;1.00;;;12.40;98.10;;;;;;5090191;28;20036;-71
2022/04/10 13:51:48;;;;;;;3.55;1.00;;;12.40;98.40;;;;;;5090172;28;20105;-70
2022/04/10 13:54:14;;;;;;;4.68;1.95;;;12.40;97.60;;;;;;5090058;28;20047;-69
2022/04/10 13:56:39;;;;;;;5.72;1.60;;;12.50;98.30;;;;;;5090180;28;20044;-69
2022/04/10 13:59:05;;;;;;;6.10;1.00;;;12.50;99.10;;;;;;5090471;28;20044;-70
2022/04/10 14:01:35;;;;;;;4.35;0.80;;;12.50;98.20;;;;;;5090808;28;20083;-69
2022/04/10 14:04:01;;;;;;;6.57;1.50;;;12.70;97.90;;;;;;5093847;28;20066;-69
2022/04/10 14:06:27;;;;;;;3.80;1.17;;;12.90;98.10;;;;;;5093811;28;20055;-71
2022/04/10 14:08:56;;;;;;;3.38;1.15;;;12.70;97.10;;;;;;5093986;28;20040;-70
2022/04/10 14:11:22;;;;;;;2.60;1.15;;;12.60;97.50;;;;;;5093992;28;20036;-69
2022/04/10 14:13:49;;;;;;;3.47;1.00;;;12.50;97.70;;;;;;5093856;28;20096;-70
2022/04/10 14:16:15;;;;;;;8.77;1.75;;;12.50;96.80;;;;;;5076779;28;20541;-69
2022/04/10 14:18:41;;;;;;;2.33;1.05;;;12.50;96.80;;;;;;5060149;28;20082;-68
2022/04/10 14:21:07;;;;;;;6.70;1.10;;;12.50;97.40;;;;;;5093665;28;20100;-70